Time;durP1;ratioP1;P1;durP2;ratioP2;P2;SDS_P1;SDS_P2;PMS_P1;PMS_P2;Temp;Humidity;BMP_temperature;BMP_pressure;BME280_temperature;BME280_humidity;BME280_pressure;Samples;Min_cycle;Max_cycle;Signal;HPM_P1;HPM_P2
2023/01/17 00:02:45;;;;;;;3.90;3.60;;;;;;;5.35;68.74;97077.56;10465173;28;20199;-85
2023/01/17 00:13:08;;;;;;;5.07;4.67;;;;;;;5.01;70.21;97081.03;10460534;28;20200;-86
2023/01/17 00:18:10;;;;;;;5.07;4.13;;;;;;;5.17;70.17;97076.28;10478987;28;20215;-86
2023/01/17 01:37:21;;;;;;;2.20;2.00;;;;;;;4.86;68.99;97206.81;10472548;28;20223;-85
2023/01/17 01:42:24;;;;;;;2.80;2.60;;;;;;;4.86;69.53;97215.94;10478350;28;20195;-85
2023/01/17 01:47:34;;;;;;;2.60;2.40;;;;;;;4.31;70.49;97231.38;10501969;28;20195;-86
2023/01/17 01:52:42;;;;;;;3.13;2.87;;;;;;;4.92;69.00;97236.72;10495912;28;20661;-86
2023/01/17 01:57:46;;;;;;;2.10;1.90;;;;;;;4.75;68.39;97239.78;10493501;28;20677;-85
2023/01/17 02:02:49;;;;;;;1.90;1.80;;;;;;;4.38;69.81;97250.19;10457496;28;20253;-85
2023/01/17 02:08:02;;;;;;;1.63;1.53;;;;;;;4.30;69.24;97271.38;10462347;28;20466;-85
2023/01/17 02:13:06;;;;;;;2.57;1.60;;;;;;;4.04;71.64;97278.44;10473583;28;20250;-86
2023/01/17 02:18:18;;;;;;;5.07;2.27;;;;;;;4.96;67.13;97276.53;10487041;28;20212;-86
2023/01/17 02:23:42;;;;;;;3.27;1.90;;;;;;;3.91;71.63;97297.06;10501289;28;20191;-84
2023/01/17 02:29:05;;;;;;;1.73;1.23;;;;;;;3.59;71.69;97318.94;10487588;28;20260;-85
2023/01/17 02:34:32;;;;;;;2.57;1.37;;;;;;;3.74;70.33;97325.78;10471286;28;20227;-84
2023/01/17 02:39:58;;;;;;;1.73;0.90;;;;;;;3.23;69.75;97344.56;10489991;28;20227;-84
2023/01/17 02:45:01;;;;;;;0.90;0.90;;;;;;;3.35;70.77;97341.06;10444843;28;20218;-84
2023/01/17 02:50:24;;;;;;;1.30;1.20;;;;;;;3.73;67.81;97345.53;10460162;28;20325;-84
2023/01/17 02:56:12;;;;;;;2.03;1.87;;;;;;;3.82;69.37;97360.13;10477724;28;20204;-84
2023/01/17 03:01:28;;;;;;;0.93;0.90;;;;;;;3.42;70.48;97374.56;10465101;28;20203;-84
2023/01/17 03:06:39;;;;;;;0.67;0.50;;;;;;;3.84;68.88;97380.78;10471194;28;20250;-84
2023/01/17 03:11:41;;;;;;;0.63;0.63;;;;;;;3.28;68.61;97401.72;10475333;28;20191;-83
2023/01/17 03:16:44;;;;;;;0.40;0.23;;;;;;;3.09;69.27;97415.22;10484523;28;20218;-83
2023/01/17 03:21:48;;;;;;;0.40;0.20;;;;;;;3.28;68.01;97418.34;10474780;28;20233;-83
2023/01/17 03:26:50;;;;;;;0.20;0.20;;;;;;;3.15;67.87;97438.81;10467426;28;20496;-84
2023/01/17 03:31:52;;;;;;;0.10;0.10;;;;;;;2.75;70.83;97432.88;10479584;28;20191;-84
2023/01/17 03:36:54;;;;;;;0.30;0.20;;;;;;;2.75;68.86;97447.53;10482582;28;20292;-83
2023/01/17 03:41:56;;;;;;;1.07;0.40;;;;;;;2.58;71.27;97450.41;10451474;28;20200;-84
2023/01/17 03:46:59;;;;;;;0.83;0.83;;;;;;;2.72;69.04;97467.56;10447993;28;20257;-85
2023/01/17 03:52:01;;;;;;;1.57;1.30;;;;;;;2.07;72.29;97463.28;10488442;28;20202;-84
2023/01/17 03:57:03;;;;;;;1.60;1.50;;;;;;;3.04;68.50;97479.13;10469273;28;20284;-84
2023/01/17 04:02:05;;;;;;;2.67;2.00;;;;;;;3.27;68.37;97483.19;10461826;28;20200;-84
2023/01/17 04:07:08;;;;;;;2.90;2.23;;;;;;;2.79;69.14;97490.00;10464403;28;20195;-84
2023/01/17 04:12:10;;;;;;;2.47;2.20;;;;;;;3.52;67.14;97496.06;10474037;28;20408;-85
2023/01/17 04:17:13;;;;;;;3.00;2.80;;;;;;;3.19;67.45;97486.81;10481072;28;20214;-84
2023/01/17 04:22:15;;;;;;;5.13;3.07;;;;;;;3.29;68.22;97493.94;10478143;28;20273;-84
2023/01/17 04:27:17;;;;;;;2.73;2.50;;;;;;;2.95;68.17;97497.72;10485984;28;20188;-82
2023/01/17 04:32:19;;;;;;;2.13;1.90;;;;;;;3.50;68.32;97497.53;10501195;28;20195;-82
2023/01/17 04:37:22;;;;;;;5.53;1.97;;;;;;;3.17;68.65;97505.75;10473536;28;20612;-82
2023/01/17 04:42:24;;;;;;;3.03;1.63;;;;;;;3.23;68.89;97505.22;10476530;28;20749;-81
2023/01/17 04:47:26;;;;;;;2.20;1.47;;;;;;;3.67;67.19;97510.47;10488107;28;20869;-83
2023/01/17 04:52:29;;;;;;;3.13;1.93;;;;;;;3.55;66.25;97520.34;10469970;28;20203;-85
2023/01/17 04:57:31;;;;;;;3.50;2.00;;;;;;;3.39;67.47;97518.50;10485534;28;20211;-84
2023/01/17 05:02:33;;;;;;;3.57;1.60;;;;;;;3.59;67.17;97521.25;10491557;28;20195;-83
2023/01/17 05:07:35;;;;;;;2.23;1.73;;;;;;;3.46;67.44;97518.75;10493270;28;20196;-84
2023/01/17 05:12:38;;;;;;;2.30;2.10;;;;;;;3.42;68.42;97529.72;10471007;28;20200;-83
2023/01/17 05:17:40;;;;;;;2.90;2.10;;;;;;;3.78;66.79;97531.88;10492396;28;20264;-84
2023/01/17 05:22:42;;;;;;;4.07;2.20;;;;;;;3.57;66.96;97542.13;10482758;28;20199;-84
2023/01/17 05:27:44;;;;;;;3.30;3.00;;;;;;;3.41;68.00;97541.94;10503081;28;21362;-85
2023/01/17 05:32:48;;;;;;;4.67;3.97;;;;;;;3.50;68.11;97548.22;10480165;28;20570;-85
2023/01/17 05:37:50;;;;;;;5.60;5.00;;;;;;;3.46;67.94;97563.91;10458234;28;20296;-83
2023/01/17 05:42:54;;;;;;;8.20;6.03;;;;;;;3.66;67.27;97564.28;10484196;28;20254;-85
2023/01/17 05:47:57;;;;;;;8.57;6.20;;;;;;;3.18;69.53;97574.63;10484276;28;20237;-85
2023/01/17 05:53:02;;;;;;;6.33;4.90;;;;;;;3.54;67.79;97576.91;10484944;28;20343;-84
2023/01/17 05:58:04;;;;;;;9.27;4.90;;;;;;;3.42;68.67;97576.00;10478668;28;20219;-82
2023/01/17 06:03:07;;;;;;;6.03;4.90;;;;;;;3.23;67.69;97593.84;10461746;28;20196;-83
2023/01/17 06:08:09;;;;;;;8.30;4.87;;;;;;;3.09;67.88;97600.75;10473097;28;20655;-83
2023/01/17 06:13:14;;;;;;;10.73;4.87;;;;;;;3.48;67.25;97602.38;10480527;28;20200;-83
2023/01/17 06:18:17;;;;;;;6.63;4.87;;;;;;;3.63;66.69;97601.78;10484406;28;20293;-83
2023/01/17 06:23:19;;;;;;;9.77;4.77;;;;;;;3.80;65.83;97596.13;10483586;28;20661;-83
2023/01/17 06:28:22;;;;;;;7.60;5.03;;;;;;;3.59;66.07;97612.72;10476910;28;20604;-83
2023/01/17 06:33:24;;;;;;;6.73;4.63;;;;;;;3.24;67.22;97627.91;10502367;28;20196;-83
2023/01/17 06:38:28;;;;;;;7.87;4.53;;;;;;;3.40;66.66;97622.63;10480455;28;20235;-83
2023/01/17 06:43:32;;;;;;;7.87;4.30;;;;;;;3.41;66.43;97632.56;10476009;28;20250;-83
2023/01/17 06:48:34;;;;;;;7.63;4.73;;;;;;;3.75;65.67;97642.63;10446641;28;20187;-83
2023/01/17 06:53:36;;;;;;;4.70;4.20;;;;;;;3.67;65.97;97663.72;10485461;28;20379;-83
2023/01/17 06:58:39;;;;;;;7.10;4.27;;;;;;;3.67;65.21;97657.38;10483106;28;20276;-83
2023/01/17 07:03:41;;;;;;;6.10;4.60;;;;;;;3.31;67.52;97658.63;10465042;28;20222;-83
2023/01/17 07:08:43;;;;;;;8.53;4.97;;;;;;;3.25;67.48;97662.75;10461534;28;20588;-83
2023/01/17 07:13:45;;;;;;;8.40;5.20;;;;;;;3.48;66.37;97660.56;10480867;28;20249;-83
2023/01/17 07:18:48;;;;;;;7.90;5.47;;;;;;;3.67;65.65;97665.69;10474981;28;20237;-83
2023/01/17 07:23:50;;;;;;;7.00;5.53;;;;;;;3.37;66.99;97665.66;10487582;28;20328;-83
2023/01/17 07:28:52;;;;;;;9.07;6.33;;;;;;;3.46;66.38;97669.19;10472096;28;20191;-83
2023/01/17 07:33:55;;;;;;;8.60;6.27;;;;;;;3.83;65.46;97673.06;10480901;28;20215;-83
2023/01/17 07:38:57;;;;;;;9.17;6.30;;;;;;;4.04;64.25;97677.81;10467762;28;20241;-83
2023/01/17 07:43:59;;;;;;;12.87;7.27;;;;;;;3.43;65.92;97682.94;10492317;28;20202;-83
2023/01/17 07:49:01;;;;;;;9.63;7.43;;;;;;;3.80;64.57;97678.47;10473647;28;20195;-82
2023/01/17 07:54:03;;;;;;;11.17;7.77;;;;;;;3.29;66.52;97680.34;10479395;28;20199;-84
2023/01/17 07:59:06;;;;;;;12.87;7.83;;;;;;;3.39;66.26;97680.00;10498351;28;20220;-86
2023/01/17 08:04:09;;;;;;;9.67;7.53;;;;;;;3.89;63.77;97676.47;10482683;28;20530;-85
2023/01/17 08:09:11;;;;;;;11.57;8.20;;;;;;;3.98;62.93;97671.66;10501015;28;20188;-85
2023/01/17 08:14:13;;;;;;;13.67;8.50;;;;;;;3.73;64.19;97680.97;10488139;28;20615;-84
2023/01/17 08:19:16;;;;;;;12.53;7.40;;;;;;;3.39;65.33;97674.47;10484580;28;20257;-85
2023/01/17 08:24:18;;;;;;;9.10;6.80;;;;;;;3.52;64.03;97676.19;10469300;28;20253;-84
2023/01/17 08:29:21;;;;;;;9.87;7.23;;;;;;;3.28;64.50;97684.25;10480779;28;20546;-84
2023/01/17 08:34:25;;;;;;;12.83;7.60;;;;;;;3.63;64.10;97679.38;10481076;28;20223;-83
2023/01/17 08:39:28;;;;;;;9.97;7.30;;;;;;;3.41;64.34;97676.91;10464302;28;20309;-84
2023/01/17 08:44:30;;;;;;;9.20;7.00;;;;;;;3.35;63.70;97673.50;10488617;28;20662;-84
2023/01/17 08:49:32;;;;;;;10.53;6.83;;;;;;;3.65;62.83;97682.63;10481575;28;20188;-84
2023/01/17 08:54:34;;;;;;;9.37;7.27;;;;;;;3.54;62.76;97682.22;10485358;28;20191;-85
2023/01/17 08:59:36;;;;;;;11.97;7.73;;;;;;;3.74;62.60;97699.22;10458973;28;20324;-83
2023/01/17 09:04:38;;;;;;;12.67;8.43;;;;;;;3.52;64.08;97701.13;10486116;28;20196;-83
2023/01/17 09:09:40;;;;;;;12.13;8.50;;;;;;;3.70;62.76;97706.59;10469018;28;20191;-83
2023/01/17 09:14:43;;;;;;;12.77;8.10;;;;;;;3.03;64.48;97699.03;10456498;28;20549;-83
2023/01/17 09:19:47;;;;;;;11.30;8.20;;;;;;;3.86;63.51;97699.31;10479039;28;20308;-85
2023/01/17 09:24:49;;;;;;;13.90;8.97;;;;;;;3.69;63.26;97697.47;10459258;28;20262;-83
2023/01/17 09:29:51;;;;;;;13.47;8.40;;;;;;;3.76;63.97;97705.25;10475049;28;20264;-85
2023/01/17 09:34:56;;;;;;;12.33;8.90;;;;;;;3.63;63.09;97712.66;10499586;28;20224;-84
2023/01/17 09:39:59;;;;;;;13.57;9.03;;;;;;;3.70;64.10;97718.47;10483309;28;20292;-84
2023/01/17 09:45:01;;;;;;;13.03;9.47;;;;;;;4.19;62.95;97718.84;10492708;28;20254;-83
2023/01/17 09:50:26;;;;;;;14.90;10.10;;;;;;;4.05;62.73;97729.38;10490718;28;20222;-85
2023/01/17 09:55:36;;;;;;;12.20;8.50;;;;;;;3.44;63.30;97726.91;10476114;28;20199;-84
2023/01/17 10:00:41;;;;;;;11.83;7.60;;;;;;;3.64;63.51;97730.91;10481635;28;20524;-83
2023/01/17 10:06:07;;;;;;;11.37;8.03;;;;;;;3.80;62.46;97731.16;10492977;28;20199;-84
2023/01/17 10:11:19;;;;;;;9.63;6.83;;;;;;;3.58;63.97;97735.81;10501292;28;20533;-82
2023/01/17 10:16:33;;;;;;;8.77;5.43;;;;;;;3.55;61.81;97733.72;10473510;28;20605;-83
2023/01/17 10:22:01;;;;;;;11.67;7.33;;;;;;;3.49;62.67;97734.22;10488065;28;20199;-83
2023/01/17 10:27:17;;;;;;;8.90;5.77;;;;;;;4.14;60.96;97732.91;10493335;28;20607;-84
2023/01/17 10:32:22;;;;;;;11.30;6.67;;;;;;;3.51;62.27;97729.19;10499030;28;20601;-82
2023/01/17 10:37:39;;;;;;;9.10;6.27;;;;;;;3.89;62.55;97723.59;10481786;28;20246;-83
2023/01/17 10:42:59;;;;;;;11.53;6.53;;;;;;;4.30;61.60;97723.66;10467236;28;20503;-84
2023/01/17 10:48:17;;;;;;;12.50;7.60;;;;;;;4.12;62.36;97719.38;10481932;28;20203;-85
2023/01/17 10:53:38;;;;;;;15.27;7.47;;;;;;;4.82;60.15;97719.63;10482625;28;20264;-84
2023/01/17 10:58:40;;;;;;;13.37;8.07;;;;;;;5.21;59.06;97715.47;10499322;28;20219;-84
2023/01/17 11:03:44;;;;;;;7.93;7.00;;;;;;;4.72;59.98;97722.81;10500236;28;20191;-84
2023/01/17 11:08:56;;;;;;;12.77;8.07;;;;;;;5.09;59.06;97707.91;10482788;28;20195;-83
2023/01/17 11:14:00;;;;;;;14.03;8.73;;;;;;;4.80;60.02;97710.81;10499683;28;20256;-84
2023/01/17 11:19:16;;;;;;;12.40;7.33;;;;;;;4.82;60.54;97725.16;10498785;28;20270;-85
2023/01/17 11:24:25;;;;;;;11.77;6.33;;;;;;;4.67;59.15;97712.72;10498907;28;20199;-83
2023/01/17 11:29:38;;;;;;;9.63;6.13;;;;;;;5.03;57.88;97712.84;10501060;28;20250;-83
2023/01/17 11:34:41;;;;;;;12.07;6.77;;;;;;;5.25;58.57;97711.69;10490040;28;20284;-83
2023/01/17 11:39:46;;;;;;;8.33;5.73;;;;;;;5.00;58.90;97710.75;10497613;28;20219;-82
2023/01/17 11:44:49;;;;;;;10.43;6.17;;;;;;;5.03;58.67;97715.63;10497342;28;20229;-83
2023/01/17 11:49:51;;;;;;;11.10;5.33;;;;;;;5.14;57.71;97715.19;10494532;28;20530;-84
2023/01/17 11:54:54;;;;;;;9.03;5.77;;;;;;;4.98;57.60;97718.66;10491747;28;20200;-85
2023/01/17 12:00:19;;;;;;;7.77;4.80;;;;;;;4.88;56.79;97707.94;10493287;28;20215;-84
2023/01/17 12:05:28;;;;;;;11.23;5.40;;;;;;;5.14;57.33;97701.28;10479133;28;20203;-83
2023/01/17 12:10:49;;;;;;;7.93;5.03;;;;;;;5.52;56.90;97696.28;10485932;28;20279;-84
2023/01/17 12:15:51;;;;;;;9.40;4.40;;;;;;;5.01;54.84;97690.16;10490374;28;20191;-84
2023/01/17 12:21:11;;;;;;;7.37;4.70;;;;;;;5.62;55.46;97676.38;10493574;28;20572;-83
2023/01/17 12:26:29;;;;;;;5.60;3.23;;;;;;;5.42;55.64;97682.84;10490643;28;20269;-84
2023/01/17 12:31:35;;;;;;;9.23;3.83;;;;;;;6.34;52.53;97663.50;10454986;28;20195;-84
2023/01/17 12:36:53;;;;;;;11.37;3.87;;;;;;;5.60;55.32;97663.97;10460203;28;20247;-84
2023/01/17 12:42:00;;;;;;;9.43;3.90;;;;;;;5.50;54.95;97675.56;10513609;28;20218;-84
2023/01/17 12:47:03;;;;;;;12.40;3.77;;;;;;;5.71;56.24;97674.28;10487473;28;20265;-83
2023/01/17 12:52:20;;;;;;;6.97;3.10;;;;;;;5.63;53.61;97677.19;10504379;28;20187;-84
2023/01/17 12:57:27;;;;;;;6.53;3.93;;;;;;;5.15;55.97;97680.69;10485513;28;20191;-83
2023/01/17 13:02:36;;;;;;;7.43;3.30;;;;;;;5.70;53.71;97671.84;10503323;28;20240;-83
2023/01/17 13:07:50;;;;;;;8.23;3.23;;;;;;;5.85;52.78;97675.91;10499309;28;20253;-84
2023/01/17 13:12:56;;;;;;;10.03;3.20;;;;;;;6.10;52.27;97667.16;10499601;28;20194;-84
2023/01/17 13:18:10;;;;;;;5.80;2.73;;;;;;;5.85;53.18;97673.94;10481474;28;20249;-84
2023/01/17 13:23:27;;;;;;;4.13;2.93;;;;;;;6.04;53.03;97670.53;10482634;28;20191;-85
2023/01/17 13:28:53;;;;;;;6.63;3.43;;;;;;;5.88;55.50;97672.44;10497230;28;20183;-84
2023/01/17 13:34:18;;;;;;;7.07;2.90;;;;;;;5.96;53.38;97669.50;10498914;28;20222;-85
2023/01/17 13:39:35;;;;;;;7.50;3.40;;;;;;;6.31;52.82;97664.19;10484368;28;20235;-84
2023/01/17 13:44:38;;;;;;;3.80;2.53;;;;;;;5.95;52.69;97669.84;10496627;28;20203;-82
2023/01/17 13:49:41;;;;;;;8.37;2.10;;;;;;;5.92;52.91;97673.34;10497677;28;20608;-83
2023/01/17 13:54:45;;;;;;;4.73;2.20;;;;;;;6.70;49.04;97670.09;10496022;28;20245;-82
2023/01/17 13:59:48;;;;;;;5.43;2.60;;;;;;;5.92;52.45;97676.94;10499154;28;20339;-83
2023/01/17 14:05:14;;;;;;;5.07;2.17;;;;;;;5.32;52.76;97678.56;10500515;28;20588;-85
2023/01/17 14:10:46;;;;;;;9.23;2.50;;;;;;;5.19;52.57;97687.22;10516106;28;20195;-83
2023/01/17 14:15:49;;;;;;;5.07;1.67;;;;;;;5.15;52.87;97683.47;10486626;28;20577;-83
2023/01/17 14:21:05;;;;;;;5.73;2.10;;;;;;;5.31;51.61;97690.03;10498688;28;20220;-83
2023/01/17 14:26:37;;;;;;;5.93;1.70;;;;;;;5.27;52.78;97691.84;10466362;28;20191;-84
2023/01/17 14:31:39;;;;;;;6.53;1.90;;;;;;;6.15;50.08;97688.38;10458251;28;20195;-82
2023/01/17 14:36:41;;;;;;;5.53;1.87;;;;;;;5.42;52.28;97684.81;10457792;28;20708;-84
2023/01/17 14:41:44;;;;;;;6.83;2.20;;;;;;;4.97;53.54;97692.00;10489804;28;20824;-82
2023/01/17 14:46:47;;;;;;;4.83;2.27;;;;;;;5.12;53.00;97703.63;10469969;28;20615;-83
2023/01/17 14:52:03;;;;;;;5.50;2.03;;;;;;;5.43;51.89;97698.38;10495552;28;20246;-84
2023/01/17 14:57:35;;;;;;;6.00;1.50;;;;;;;5.30;49.40;97702.28;10474220;28;20541;-83
2023/01/17 15:02:41;;;;;;;4.37;1.57;;;;;;;5.37;49.39;97699.78;10490092;28;20288;-85
2023/01/17 15:07:45;;;;;;;8.93;2.17;;;;;;;5.46;48.42;97697.69;10463900;28;20195;-84
2023/01/17 15:12:48;;;;;;;4.00;1.40;;;;;;;5.38;49.59;97705.00;10469964;28;20207;-83
2023/01/17 15:17:52;;;;;;;5.23;2.17;;;;;;;5.26;51.81;97684.66;10483362;28;20241;-83
2023/01/17 15:22:55;;;;;;;7.90;2.43;;;;;;;4.76;51.54;97705.13;10475394;28;20187;-85
2023/01/17 15:27:57;;;;;;;6.20;2.43;;;;;;;5.38;50.02;97704.19;10486075;28;20203;-84
2023/01/17 15:32:59;;;;;;;4.70;2.37;;;;;;;5.15;51.36;97711.25;10497196;28;20199;-85
2023/01/17 15:38:03;;;;;;;8.67;3.57;;;;;;;5.42;50.25;97726.50;10490414;28;20232;-83
2023/01/17 15:43:18;;;;;;;9.17;3.17;;;;;;;5.01;52.14;97712.38;10496639;28;20233;-83
2023/01/17 15:48:40;;;;;;;7.17;3.20;;;;;;;5.10;54.84;97719.81;10491117;28;20530;-86
2023/01/17 15:53:42;;;;;;;7.97;3.00;;;;;;;4.89;54.03;97708.75;10458350;28;20204;-84
2023/01/17 15:58:47;;;;;;;5.83;3.07;;;;;;;4.86;55.05;97726.94;10481405;28;20765;-84
2023/01/17 16:03:53;;;;;;;8.00;3.33;;;;;;;4.58;55.19;97721.16;10476218;28;20542;-84
2023/01/17 16:08:55;;;;;;;5.70;2.53;;;;;;;4.16;56.45;97725.88;10471607;28;20196;-84
2023/01/17 16:13:58;;;;;;;7.07;2.97;;;;;;;4.20;58.50;97726.03;10473138;28;20199;-84
2023/01/17 16:19:00;;;;;;;8.03;3.70;;;;;;;4.22;57.90;97723.69;10504373;28;20587;-82
2023/01/17 16:24:04;;;;;;;9.27;3.70;;;;;;;4.24;57.50;97732.50;10496638;28;20248;-83
2023/01/17 16:29:07;;;;;;;7.50;3.87;;;;;;;4.13;57.64;97732.09;10480896;28;20229;-83
2023/01/17 16:34:13;;;;;;;16.13;6.43;;;;;;;3.73;58.22;97737.22;10490222;28;20344;-82
2023/01/17 16:39:15;;;;;;;7.80;4.30;;;;;;;3.86;58.44;97743.66;10471921;28;20250;-82
2023/01/17 16:44:17;;;;;;;8.73;4.10;;;;;;;3.78;58.88;97739.00;10482495;28;20272;-81
2023/01/17 16:49:20;;;;;;;10.50;4.43;;;;;;;3.49;60.00;97748.91;10482884;28;20276;-83
2023/01/17 16:54:23;;;;;;;10.23;5.03;;;;;;;3.49;58.77;97768.31;10470887;28;20295;-83
2023/01/17 16:59:26;;;;;;;12.43;6.30;;;;;;;3.48;60.05;97776.94;10467505;28;20255;-83
2023/01/17 17:04:43;;;;;;;9.70;4.93;;;;;;;3.49;59.98;97779.38;10493527;28;20226;-83
2023/01/17 17:09:46;;;;;;;13.73;5.13;;;;;;;3.37;59.27;97776.50;10477647;28;20223;-83
2023/01/17 17:14:48;;;;;;;8.93;5.50;;;;;;;3.44;59.40;97782.31;10479037;28;20600;-84
2023/01/17 17:19:51;;;;;;;10.47;5.40;;;;;;;3.24;61.09;97783.81;10476297;28;20251;-83
2023/01/17 17:24:53;;;;;;;6.37;4.63;;;;;;;3.17;59.24;97788.25;10490541;28;20632;-84
2023/01/17 17:29:55;;;;;;;8.70;5.40;;;;;;;2.99;60.99;97783.88;10487990;28;20249;-79
2023/01/17 17:34:58;;;;;;;9.90;5.17;;;;;;;3.20;60.24;97793.13;10470070;28;20296;-82
2023/01/17 17:40:00;;;;;;;8.77;5.67;;;;;;;3.14;59.41;97795.25;10476643;28;20290;-82
2023/01/17 17:45:03;;;;;;;9.27;6.83;;;;;;;2.99;60.51;97790.22;10483789;28;20249;-83
2023/01/17 17:50:05;;;;;;;12.87;9.70;;;;;;;2.92;60.76;97791.88;10478377;28;20687;-87
2023/01/17 17:55:08;;;;;;;16.10;8.97;;;;;;;2.66;61.97;97800.97;10486383;28;20192;-82
2023/01/17 18:00:11;;;;;;;16.47;9.27;;;;;;;2.77;61.36;97807.84;10477270;28;20593;-83
2023/01/17 18:05:13;;;;;;;24.83;16.00;;;;;;;2.67;61.38;97810.91;10456025;28;20277;-87
2023/01/17 18:10:15;;;;;;;16.83;11.80;;;;;;;2.68;60.80;97809.78;10479754;28;20220;-82
2023/01/17 18:15:19;;;;;;;13.03;8.40;;;;;;;2.09;63.43;97825.97;10478285;28;20196;-85
2023/01/17 18:20:21;;;;;;;20.40;11.90;;;;;;;2.59;61.68;97839.41;10448664;28;20901;-87
2023/01/17 18:25:24;;;;;;;15.77;8.03;;;;;;;2.07;62.51;97839.28;10482465;28;20249;-82
2023/01/17 18:30:26;;;;;;;11.23;7.10;;;;;;;1.97;62.72;97836.84;10486010;28;20681;-83
2023/01/17 18:35:28;;;;;;;17.33;9.87;;;;;;;2.18;62.22;97837.88;10475345;28;20270;-83
2023/01/17 18:40:33;;;;;;;14.03;7.30;;;;;;;2.36;61.63;97848.97;10476550;28;20308;-84
2023/01/17 18:45:35;;;;;;;16.03;7.97;;;;;;;2.25;62.17;97855.94;10480069;28;20284;-85
2023/01/17 18:50:37;;;;;;;14.17;8.27;;;;;;;2.25;62.71;97872.53;10492288;28;20945;-86
2023/01/17 18:56:00;;;;;;;13.30;7.97;;;;;;;2.45;62.45;97866.41;10454569;28;20724;-84
2023/01/17 19:01:11;;;;;;;11.97;7.83;;;;;;;2.30;62.34;97875.16;10482564;28;20243;-83
2023/01/17 19:06:17;;;;;;;11.37;8.23;;;;;;;2.02;63.03;97882.84;10472136;28;20288;-84
2023/01/17 19:11:20;;;;;;;15.63;8.90;;;;;;;1.98;62.48;97879.94;10480004;28;20276;-84
2023/01/17 19:16:27;;;;;;;17.40;9.10;;;;;;;1.98;61.50;97888.22;10464371;28;20222;-86
2023/01/17 19:21:31;;;;;;;11.93;9.67;;;;;;;2.08;62.15;97874.13;10477316;28;20266;-85
2023/01/17 19:26:33;;;;;;;18.30;10.80;;;;;;;1.45;64.05;97880.78;10464808;28;20230;-86
2023/01/17 19:31:41;;;;;;;13.73;9.90;;;;;;;1.53;63.19;97884.72;10463414;28;20219;-84
2023/01/17 19:36:44;;;;;;;16.00;10.10;;;;;;;1.77;62.06;97895.41;10460175;28;20317;-86
2023/01/17 19:41:46;;;;;;;15.87;11.40;;;;;;;1.65;63.15;97903.47;10459744;28;20244;-85
2023/01/17 19:46:49;;;;;;;14.80;9.97;;;;;;;2.03;61.49;97904.66;10467953;28;20226;-85
2023/01/17 19:51:51;;;;;;;14.00;10.67;;;;;;;1.44;63.74;97909.53;10462041;28;20215;-84
2023/01/17 19:56:53;;;;;;;19.53;10.50;;;;;;;1.63;64.90;97911.28;10483068;28;20217;-85
2023/01/17 20:01:55;;;;;;;20.43;11.93;;;;;;;1.93;62.06;97913.22;10466257;28;20246;-85
2023/01/17 20:06:58;;;;;;;15.60;11.27;;;;;;;1.25;65.10;97913.63;10477250;28;20242;-88
2023/01/17 20:12:01;;;;;;;23.03;12.17;;;;;;;1.51;64.86;97920.13;10458518;28;20275;-84
2023/01/17 20:17:03;;;;;;;19.33;12.33;;;;;;;1.69;63.35;97921.06;10464006;28;20298;-85
2023/01/17 20:22:05;;;;;;;16.10;10.77;;;;;;;1.79;62.69;97923.56;10479036;28;20276;-85
2023/01/17 20:27:08;;;;;;;16.40;11.03;;;;;;;1.86;62.51;97926.72;10467590;28;20222;-86
2023/01/17 20:32:10;;;;;;;14.57;10.07;;;;;;;1.94;61.86;97931.44;10486760;28;20373;-86
2023/01/17 20:37:12;;;;;;;16.93;10.87;;;;;;;1.32;62.57;97934.16;10438769;28;20250;-85
2023/01/17 20:42:15;;;;;;;16.27;10.57;;;;;;;1.40;63.24;97947.19;10449210;28;20276;-86
2023/01/17 20:47:17;;;;;;;16.43;9.97;;;;;;;1.66;63.43;97950.16;10464567;27;20285;-87
2023/01/17 20:52:19;;;;;;;15.33;9.50;;;;;;;1.71;61.89;97946.44;10490747;28;20652;-87
2023/01/17 20:57:22;;;;;;;12.73;9.70;;;;;;;1.61;62.57;97957.75;10446349;28;20227;-87
2023/01/17 21:11:26;;;;;;;15.43;11.20;;;;;;;1.37;62.89;97958.88;21009324;27;20650;-86
2023/01/17 21:21:29;;;;;;;15.23;10.57;;;;;;;1.64;62.61;97973.69;21110527;27;20194;-84
2023/01/17 21:31:33;;;;;;;14.00;9.77;;;;;;;1.49;62.55;97976.84;21075053;28;20214;-87
2023/01/17 21:41:38;;;;;;;17.33;10.80;;;;;;;1.31;63.29;97982.22;21020151;28;20223;-85
2023/01/17 22:01:56;;;;;;;13.63;11.07;;;;;;;0.90;65.56;97992.56;21018088;28;20222;-90
2023/01/17 22:11:59;;;;;;;12.57;10.10;;;;;;;1.22;63.41;97997.91;20986584;28;20199;-85
2023/01/17 22:22:01;;;;;;;20.10;11.77;;;;;;;1.19;63.06;98011.50;20967014;28;20217;-84
2023/01/17 22:32:03;;;;;;;20.03;11.20;;;;;;;1.16;64.06;98007.44;20942072;28;20191;-84
2023/01/17 22:42:07;;;;;;;16.13;10.47;;;;;;;1.25;61.63;98011.06;20928545;28;20215;-87
2023/01/17 22:52:09;;;;;;;17.67;9.83;;;;;;;0.93;61.34;98014.03;20926136;28;20196;-88
2023/01/17 23:02:11;;;;;;;15.30;10.27;;;;;;;0.83;61.78;98016.97;20962559;28;20697;-90
2023/01/17 23:12:14;;;;;;;15.57;9.97;;;;;;;0.73;61.37;98021.56;20974536;28;20246;-89
2023/01/17 23:22:25;;;;;;;13.00;10.27;;;;;;;0.85;62.07;98021.03;20942765;28;20215;-86
2023/01/17 23:32:28;;;;;;;14.80;11.47;;;;;;;0.48;62.98;98019.31;20908109;28;20753;-90
2023/01/17 23:52:51;;;;;;;13.33;9.03;;;;;;;0.39;63.68;98012.88;20927444;28;20646;-87
